Time;durP1;ratioP1;P1;durP2;ratioP2;P2;SDS_P1;SDS_P2;PMS_P1;PMS_P2;Temp;Humidity;BMP_temperature;BMP_pressure;BME280_temperature;BME280_humidity;BME280_pressure;Samples;Min_cycle;Max_cycle;Signal;HPM_P1;HPM_P2
2022/06/01 00:01:00;;;;;;;2.08;1.70;;;;;;;;;;4908600;28;20074;-71
2022/06/01 00:03:30;;;;;;;1.52;1.40;;;;;;;;;;4939442;28;20139;-72
2022/06/01 00:05:55;;;;;;;8.77;2.55;;;;;;;;;;4910232;28;20134;-73
2022/06/01 00:08:22;;;;;;;1.65;1.55;;;;;;;;;;4908855;29;20757;-72
2022/06/01 00:10:49;;;;;;;1.95;1.70;;;;;;;;;;4908424;28;20106;-72
2022/06/01 00:13:15;;;;;;;2.95;1.63;;;;;;;;;;4906333;28;20496;-71
2022/06/01 00:15:41;;;;;;;4.40;1.77;;;;;;;;;;4919567;28;20617;-72
2022/06/01 00:18:06;;;;;;;2.00;1.52;;;;;;;;;;4909964;28;20055;-71
2022/06/01 00:20:32;;;;;;;2.83;1.90;;;;;;;;;;4919922;28;20620;-74
2022/06/01 00:22:57;;;;;;;1.70;1.60;;;;;;;;;;4902350;28;20045;-71
2022/06/01 00:25:24;;;;;;;1.52;1.23;;;;;;;;;;4905689;29;20122;-72
2022/06/01 00:27:50;;;;;;;2.03;1.50;;;;;;;;;;4903642;28;20048;-71
2022/06/01 00:30:17;;;;;;;2.40;1.70;;;;;;;;;;4904534;28;20058;-73
2022/06/01 00:32:42;;;;;;;1.48;1.30;;;;;;;;;;4908780;28;20054;-71
2022/06/01 00:35:10;;;;;;;2.95;1.33;;;;;;;;;;4907667;28;20035;-74
2022/06/01 00:37:36;;;;;;;2.65;1.55;;;;;;;;;;4907085;29;20487;-74
2022/06/01 00:40:04;;;;;;;3.40;1.50;;;;;;;;;;4907442;28;20901;-73
2022/06/01 00:42:32;;;;;;;2.67;1.50;;;;;;;;;;4935667;28;20446;-72
2022/06/01 00:44:59;;;;;;;1.92;1.38;;;;;;;;;;4908736;28;20143;-74
2022/06/01 00:47:27;;;;;;;1.83;1.45;;;;;;;;;;4908577;28;20081;-72
2022/06/01 00:50:04;;;;;;;1.85;1.48;;;;;;;;;;4907786;29;20062;-71
2022/06/01 00:52:35;;;;;;;2.63;1.50;;;;;;;;;;4906412;29;20055;-71
2022/06/01 00:55:15;;;;;;;1.55;1.40;;;;;;;;;;4907782;28;20040;-73
2022/06/01 00:57:41;;;;;;;4.55;1.67;;;;;;;;;;4905157;28;20047;-75
2022/06/01 01:00:15;;;;;;;2.78;1.40;;;;;;;;;;4902140;28;20050;-72
2022/06/01 01:02:41;;;;;;;1.50;1.40;;;;;;;;;;4901879;28;20043;-74
2022/06/01 01:05:09;;;;;;;2.60;1.55;;;;;;;;;;4901693;28;20563;-73
2022/06/01 01:07:36;;;;;;;1.98;1.58;;;;;;;;;;4901350;29;20035;-72
2022/06/01 01:10:01;;;;;;;3.15;1.55;;;;;;;;;;4900185;28;20060;-73
2022/06/01 01:12:55;;;;;;;3.33;1.55;;;;;;;;;;4902151;28;20504;-72
2022/06/01 01:15:12;;;;;;;2.63;1.50;;;;;;;;;;4905048;28;20044;-72
2022/06/01 01:17:37;;;;;;;3.50;1.67;;;;;;;;;;4906092;28;20311;-72
2022/06/01 01:20:03;;;;;;;2.05;1.70;;;;;;;;;;4936887;28;20047;-71
2022/06/01 01:22:47;;;;;;;2.22;1.48;;;;;;;;;;4908055;29;20036;-72
2022/06/01 01:25:18;;;;;;;;;;;;;;;;;;4903398;28;20040;-73
2022/06/01 01:27:45;;;;;;;1.40;1.30;;;;;;;;;;4935073;28;20052;-72
2022/06/01 01:30:39;;;;;;;2.05;1.52;;;;;;;;;;4907716;28;20044;-71
2022/06/01 01:33:11;;;;;;;3.50;1.75;;;;;;;;;;4906047;28;21500;-72
2022/06/01 01:35:36;;;;;;;3.92;1.90;;;;;;;;;;4906248;28;20445;-73
2022/06/01 01:38:07;;;;;;;2.17;1.40;;;;;;;;;;4909239;28;20150;-74
2022/06/01 01:40:33;;;;;;;3.70;1.73;;;;;;;;;;4909763;29;20039;-74
2022/06/01 01:43:00;;;;;;;3.83;1.80;;;;;;;;;;4909215;28;20392;-72
2022/06/01 01:45:31;;;;;;;1.60;1.50;;;;;;;;;;4911170;28;20039;-72
2022/06/01 01:47:57;;;;;;;3.35;1.50;;;;;;;;;;4911600;28;20520;-72
2022/06/01 01:50:24;;;;;;;1.77;1.30;;;;;;;;;;4912785;28;20404;-72
2022/06/01 01:52:50;;;;;;;2.20;1.50;;;;;;;;;;4909230;29;20039;-71
2022/06/01 01:55:43;;;;;;;2.40;1.50;;;;;;;;;;4912289;28;20052;-71
2022/06/01 01:58:27;;;;;;;2.92;1.63;;;;;;;;;;4911294;29;20047;-73
2022/06/01 02:00:58;;;;;;;2.97;1.73;;;;;;;;;;4925870;28;20040;-73
2022/06/01 02:03:32;;;;;;;3.40;1.65;;;;;;;;;;4910230;28;20856;-71
2022/06/01 02:06:14;;;;;;;3.17;1.83;;;;;;;;;;4909575;28;20059;-70
2022/06/01 02:08:46;;;;;;;2.73;1.70;;;;;;;;;;4911299;28;20106;-73
2022/06/01 02:14:16;;;;;;;4.30;1.70;;;;;;;;;;4910705;28;20565;-73
2022/06/01 02:16:45;;;;;;;;;;;;;;;;;;4910526;29;20035;-71
2022/06/01 02:19:15;;;;;;;3.72;1.80;;;;;;;;;;4910347;28;19922;-73
2022/06/01 02:21:41;;;;;;;2.42;1.60;;;;;;;;;;4910603;28;20039;-72
2022/06/01 02:24:07;;;;;;;2.10;1.67;;;;;;;;;;4912612;28;20050;-72
2022/06/01 02:26:33;;;;;;;2.30;1.73;;;;;;;;;;4911792;29;20070;-72
2022/06/01 02:29:09;;;;;;;9.43;1.85;;;;;;;;;;4911008;28;20032;-73
2022/06/01 02:31:37;;;;;;;3.42;1.67;;;;;;;;;;4911493;28;20032;-73
2022/06/01 02:34:05;;;;;;;2.58;1.70;;;;;;;;;;4910476;28;20158;-75
2022/06/01 02:36:32;;;;;;;4.80;2.20;;;;;;;;;;4910951;28;20054;-72
2022/06/01 02:38:58;;;;;;;5.93;2.10;;;;;;;;;;4911364;28;20050;-72
2022/06/01 02:44:08;;;;;;;2.97;1.77;;;;;;;;;;4910548;28;20074;-71
2022/06/01 02:46:34;;;;;;;3.25;1.90;;;;;;;;;;4912455;29;20155;-72
2022/06/01 02:49:01;;;;;;;2.17;1.73;;;;;;;;;;4940354;28;20439;-73
2022/06/01 02:51:27;;;;;;;2.92;1.60;;;;;;;;;;4913030;28;20043;-73
2022/06/01 02:53:53;;;;;;;2.50;1.92;;;;;;;;;;4911759;28;20082;-71
2022/06/01 02:56:19;;;;;;;3.15;1.80;;;;;;;;;;4914855;28;20510;-73
2022/06/01 02:58:45;;;;;;;3.47;1.90;;;;;;;;;;4914007;29;20042;-72
2022/06/01 03:01:11;;;;;;;4.82;1.70;;;;;;;;;;4912312;28;20588;-72
2022/06/01 03:03:37;;;;;;;2.17;1.77;;;;;;;;;;4942529;28;20044;-72
2022/06/01 03:06:03;;;;;;;2.10;1.75;;;;;;;;;;4913732;29;20117;-73
2022/06/01 03:08:29;;;;;;;2.80;1.80;;;;;;;;;;4927310;28;20389;-72
2022/06/01 03:10:54;;;;;;;2.00;1.58;;;;;;;;;;4911567;29;20067;-73
2022/06/01 03:13:22;;;;;;;4.95;1.85;;;;;;;;;;4911588;28;20557;-71
2022/06/01 03:15:49;;;;;;;2.00;1.80;;;;;;;;;;4912079;28;20126;-72
2022/06/01 03:18:15;;;;;;;2.15;1.75;;;;;;;;;;4942222;28;20372;-71
2022/06/01 03:20:42;;;;;;;1.92;1.70;;;;;;;;;;4912571;28;20039;-73
2022/06/01 03:23:07;;;;;;;4.68;1.83;;;;;;;;;;4911257;28;20035;-72
2022/06/01 03:25:32;;;;;;;3.38;1.83;;;;;;;;;;4911707;29;20460;-73
2022/06/01 03:27:59;;;;;;;2.97;1.92;;;;;;;;;;4912858;28;22535;-73
2022/06/01 03:30:27;;;;;;;3.50;2.05;;;;;;;;;;4912786;28;20040;-73
2022/06/01 03:32:53;;;;;;;4.00;1.80;;;;;;;;;;4913089;28;20050;-72
2022/06/01 03:35:22;;;;;;;2.88;2.38;;;;;;;;;;4912482;28;20082;-73
2022/06/01 03:37:49;;;;;;;3.13;2.10;;;;;;;;;;4938393;28;21635;-73
2022/06/01 03:40:17;;;;;;;3.60;2.13;;;;;;;;;;4912507;28;20063;-74
2022/06/01 03:42:43;;;;;;;4.43;2.17;;;;;;;;;;4910553;28;21231;-72
2022/06/01 03:47:55;;;;;;;2.83;2.00;;;;;;;;;;4909890;28;20552;-73
2022/06/01 03:50:21;;;;;;;3.80;2.13;;;;;;;;;;4912500;29;20054;-72
2022/06/01 03:52:46;;;;;;;3.97;1.90;;;;;;;;;;4909951;28;20345;-72
2022/06/01 03:55:14;;;;;;;3.65;2.10;;;;;;;;;;4912703;28;21316;-71
2022/06/01 03:57:41;;;;;;;3.22;2.00;;;;;;;;;;4909571;28;20044;-73
2022/06/01 04:00:08;;;;;;;2.58;1.90;;;;;;;;;;4911397;28;20130;-73
2022/06/01 04:02:33;;;;;;;2.33;2.13;;;;;;;;;;4920963;28;20088;-73
2022/06/01 04:04:59;;;;;;;3.78;2.00;;;;;;;;;;4919136;28;20031;-73
2022/06/01 04:07:25;;;;;;;2.30;2.03;;;;;;;;;;4924058;28;20027;-72
2022/06/01 04:09:51;;;;;;;5.35;2.22;;;;;;;;;;4910360;28;20099;-72
2022/06/01 04:12:16;;;;;;;3.33;1.90;;;;;;;;;;4908376;29;20048;-73
2022/06/01 04:14:42;;;;;;;4.53;2.28;;;;;;;;;;4909693;28;20044;-74
2022/06/01 04:17:07;;;;;;;4.15;2.15;;;;;;;;;;4908380;28;20135;-71
2022/06/01 04:19:32;;;;;;;5.10;2.22;;;;;;;;;;4909518;29;20039;-72
2022/06/01 04:21:58;;;;;;;2.60;1.85;;;;;;;;;;4906727;28;20043;-71
2022/06/01 04:24:27;;;;;;;5.22;2.10;;;;;;;;;;4909260;28;20055;-71
2022/06/01 04:26:53;;;;;;;4.30;2.55;;;;;;;;;;4911033;28;20126;-73
2022/06/01 04:29:19;;;;;;;8.02;2.10;;;;;;;;;;4910102;28;20816;-72
2022/06/01 04:31:45;;;;;;;4.75;2.20;;;;;;;;;;4909550;29;20069;-72
2022/06/01 04:34:12;;;;;;;4.30;2.35;;;;;;;;;;4906755;28;20511;-73
2022/06/01 04:36:38;;;;;;;2.50;2.13;;;;;;;;;;4936911;28;20135;-73
2022/06/01 04:39:04;;;;;;;3.25;2.17;;;;;;;;;;4902802;28;20042;-73
2022/06/01 04:41:30;;;;;;;5.50;2.90;;;;;;;;;;4936591;28;20404;-72
2022/06/01 04:43:56;;;;;;;5.30;2.50;;;;;;;;;;4906165;29;20039;-73
2022/06/01 04:46:22;;;;;;;4.57;2.50;;;;;;;;;;4902576;28;20135;-72
2022/06/01 04:48:48;;;;;;;5.20;2.67;;;;;;;;;;4909529;28;20067;-73
2022/06/01 04:51:14;;;;;;;4.30;2.47;;;;;;;;;;4907819;28;20127;-74
2022/06/01 04:53:42;;;;;;;4.30;2.17;;;;;;;;;;4937942;28;20500;-70
2022/06/01 04:56:07;;;;;;;4.55;2.70;;;;;;;;;;4908700;28;20027;-72
2022/06/01 04:58:32;;;;;;;5.65;2.63;;;;;;;;;;4910747;29;20090;-75
2022/06/01 05:00:58;;;;;;;7.20;2.60;;;;;;;;;;4909711;28;20162;-73
2022/06/01 05:03:23;;;;;;;2.55;2.35;;;;;;;;;;4907318;28;20953;-73
2022/06/01 05:05:48;;;;;;;4.72;2.30;;;;;;;;;;4908581;28;20043;-72
2022/06/01 05:08:15;;;;;;;3.33;2.60;;;;;;;;;;4906938;28;20035;-71
2022/06/01 05:10:41;;;;;;;5.53;2.58;;;;;;;;;;4910882;28;20062;-73
2022/06/01 05:13:08;;;;;;;3.97;2.15;;;;;;;;;;4907593;28;20165;-73
2022/06/01 05:15:33;;;;;;;2.45;2.00;;;;;;;;;;4909802;28;20132;-71
2022/06/01 05:17:59;;;;;;;3.95;2.30;;;;;;;;;;4908155;29;20036;-72
2022/06/01 05:20:24;;;;;;;3.53;2.28;;;;;;;;;;4910669;28;20170;-72
2022/06/01 05:22:50;;;;;;;4.20;2.10;;;;;;;;;;4912798;29;20040;-73
2022/06/01 05:25:15;;;;;;;3.10;2.30;;;;;;;;;;4914702;28;20055;-74
2022/06/01 05:27:40;;;;;;;3.28;2.10;;;;;;;;;;4910301;28;20040;-73
2022/06/01 05:30:07;;;;;;;5.03;2.60;;;;;;;;;;4910760;28;20039;-73
2022/06/01 05:32:33;;;;;;;3.25;1.92;;;;;;;;;;4914454;28;20044;-71
2022/06/01 05:34:58;;;;;;;3.22;1.90;;;;;;;;;;4915434;29;20039;-70
2022/06/01 05:37:24;;;;;;;4.53;2.15;;;;;;;;;;4912942;29;20995;-72
2022/06/01 05:39:49;;;;;;;3.80;2.35;;;;;;;;;;4913475;28;20036;-74
2022/06/01 05:42:14;;;;;;;5.03;2.20;;;;;;;;;;4927048;28;20044;-71
2022/06/01 05:44:40;;;;;;;4.60;2.25;;;;;;;;;;4912648;28;20067;-73
2022/06/01 05:47:05;;;;;;;4.63;2.00;;;;;;;;;;4912580;28;20135;-74
2022/06/01 05:49:31;;;;;;;3.40;2.20;;;;;;;;;;4912950;29;20024;-72
2022/06/01 05:51:57;;;;;;;4.95;2.22;;;;;;;;;;4912247;28;20766;-73
2022/06/01 05:54:23;;;;;;;2.30;1.90;;;;;;;;;;4912854;29;20503;-73
2022/06/01 05:56:48;;;;;;;3.38;2.28;;;;;;;;;;4910675;29;20070;-73
2022/06/01 05:59:15;;;;;;;4.18;2.40;;;;;;;;;;4913906;28;20039;-73
2022/06/01 06:01:41;;;;;;;6.10;2.42;;;;;;;;;;4942617;28;20440;-73
2022/06/01 06:04:06;;;;;;;2.42;1.92;;;;;;;;;;4910301;28;20132;-76
2022/06/01 06:06:33;;;;;;;3.55;2.42;;;;;;;;;;4928002;28;20038;-72
2022/06/01 06:09:07;;;;;;;4.85;2.28;;;;;;;;;;4913601;28;20044;-72
2022/06/01 06:11:38;;;;;;;3.25;2.17;;;;;;;;;;4914907;28;20483;-73
2022/06/01 06:14:04;;;;;;;3.90;2.38;;;;;;;;;;4911644;28;20043;-71
2022/06/01 06:16:34;;;;;;;4.20;2.17;;;;;;;;;;4914476;28;20783;-73
2022/06/01 06:19:01;;;;;;;5.85;2.30;;;;;;;;;;4913100;28;21150;-71
2022/06/01 06:21:28;;;;;;;3.25;2.30;;;;;;;;;;4915354;28;20047;-72
2022/06/01 06:24:01;;;;;;;2.47;2.28;;;;;;;;;;4913609;28;20053;-71
2022/06/01 06:26:27;;;;;;;7.57;2.10;;;;;;;;;;4916105;28;20043;-73
2022/06/01 06:28:52;;;;;;;3.28;2.08;;;;;;;;;;4915291;29;20035;-71
2022/06/01 06:31:17;;;;;;;4.70;2.33;;;;;;;;;;4913024;28;20087;-72
2022/06/01 06:33:43;;;;;;;2.90;2.00;;;;;;;;;;4914147;28;20044;-71
2022/06/01 06:36:11;;;;;;;2.90;1.80;;;;;;;;;;4912249;28;20047;-70
2022/06/01 06:38:39;;;;;;;4.85;1.80;;;;;;;;;;4908234;28;20130;-73
2022/06/01 06:41:05;;;;;;;2.28;1.58;;;;;;;;;;4908242;28;20043;-71
2022/06/01 06:43:33;;;;;;;2.60;1.60;;;;;;;;;;4908639;29;21125;-71
2022/06/01 06:46:01;;;;;;;4.38;1.80;;;;;;;;;;4912297;29;20067;-72
2022/06/01 06:48:28;;;;;;;1.33;1.23;;;;;;;;;;4911486;29;20404;-73
2022/06/01 06:50:54;;;;;;;4.95;1.52;;;;;;;;;;4911360;28;20138;-72
2022/06/01 06:53:20;;;;;;;2.63;1.80;;;;;;;;;;4909838;28;22512;-71
2022/06/01 06:55:45;;;;;;;2.72;1.10;;;;;;;;;;4941983;28;20040;-71
2022/06/01 06:58:11;;;;;;;2.33;1.10;;;;;;;;;;4926145;28;20082;-72
2022/06/01 07:00:38;;;;;;;7.90;1.40;;;;;;;;;;4913315;29;20072;-72
2022/06/01 07:03:04;;;;;;;3.75;1.20;;;;;;;;;;4911645;28;20040;-72
2022/06/01 07:08:14;;;;;;;1.05;0.90;;;;;;;;;;4910592;28;20043;-70
2022/06/01 07:10:40;;;;;;;6.30;1.00;;;;;;;;;;4914012;29;20039;-72
2022/06/01 07:13:05;;;;;;;1.73;1.00;;;;;;;;;;4938376;28;20035;-71
2022/06/01 07:15:31;;;;;;;2.22;0.88;;;;;;;;;;4909433;28;20079;-71
2022/06/01 07:17:56;;;;;;;2.72;1.20;;;;;;;;;;4907573;29;20043;-73
2022/06/01 07:20:21;;;;;;;4.00;1.00;;;;;;;;;;4913821;28;20044;-71
2022/06/01 07:22:47;;;;;;;2.00;0.65;;;;;;;;;;4912801;29;20032;-73
2022/06/01 07:25:13;;;;;;;2.13;0.70;;;;;;;;;;4912033;28;20578;-72
2022/06/01 07:27:38;;;;;;;1.55;0.80;;;;;;;;;;4914455;29;20123;-72
2022/06/01 07:30:06;;;;;;;1.08;0.70;;;;;;;;;;4914727;29;20408;-70
2022/06/01 07:32:31;;;;;;;2.15;0.70;;;;;;;;;;4910697;29;20468;-72
2022/06/01 07:34:56;;;;;;;2.42;0.60;;;;;;;;;;4909391;29;20032;-71
2022/06/01 07:43:06;;;;;;;3.40;0.63;;;;;;;;;;4910249;28;20058;-71
2022/06/01 07:45:35;;;;;;;1.75;0.93;;;;;;;;;;4910061;29;20087;-72
2022/06/01 07:48:06;;;;;;;1.35;0.70;;;;;;;;;;4940216;28;20043;-72
2022/06/01 07:50:32;;;;;;;3.53;0.70;;;;;;;;;;4910725;28;20048;-73
2022/06/01 07:52:58;;;;;;;1.75;0.85;;;;;;;;;;4908941;28;20039;-71
2022/06/01 07:55:26;;;;;;;3.22;1.42;;;;;;;;;;4910918;29;20039;-73
2022/06/01 07:57:51;;;;;;;3.00;0.70;;;;;;;;;;4941648;28;20047;-71
2022/06/01 08:00:17;;;;;;;1.55;0.70;;;;;;;;;;4905428;28;20059;-73
2022/06/01 08:02:43;;;;;;;2.45;0.80;;;;;;;;;;4909946;28;20054;-72
2022/06/01 08:05:10;;;;;;;1.73;0.70;;;;;;;;;;4938673;28;20036;-71
2022/06/01 08:07:35;;;;;;;0.70;0.63;;;;;;;;;;4913080;29;20035;-71
2022/06/01 08:10:01;;;;;;;2.13;0.93;;;;;;;;;;4925234;28;20040;-71
2022/06/01 08:15:11;;;;;;;1.63;0.70;;;;;;;;;;4906874;28;20531;-72
2022/06/01 08:17:38;;;;;;;1.20;0.70;;;;;;;;;;4913517;28;20055;-73
2022/06/01 08:20:04;;;;;;;4.18;0.60;;;;;;;;;;4911402;29;20074;-71
2022/06/01 08:22:30;;;;;;;1.33;0.80;;;;;;;;;;4910692;29;20146;-71
2022/06/01 08:24:55;;;;;;;1.00;0.63;;;;;;;;;;4911269;29;20046;-72
2022/06/01 08:27:20;;;;;;;1.73;0.55;;;;;;;;;;4909930;28;20035;-72
2022/06/01 08:29:46;;;;;;;2.53;0.80;;;;;;;;;;4912215;28;20154;-73
2022/06/01 08:32:12;;;;;;;2.17;0.50;;;;;;;;;;4914517;28;20039;-72
2022/06/01 08:34:38;;;;;;;1.00;0.63;;;;;;;;;;4910965;29;20539;-72
2022/06/01 08:37:04;;;;;;;0.63;0.50;;;;;;;;;;4914501;28;20052;-72
2022/06/01 08:39:30;;;;;;;2.50;0.35;;;;;;;;;;4938858;28;20706;-71
2022/06/01 08:41:58;;;;;;;0.40;0.32;;;;;;;;;;4908203;28;20050;-73
2022/06/01 08:44:31;;;;;;;2.80;0.60;;;;;;;;;;4909017;28;21032;-72
2022/06/01 08:47:02;;;;;;;1.60;0.47;;;;;;;;;;4912132;28;20095;-71
2022/06/01 08:49:30;;;;;;;2.40;0.30;;;;;;;;;;4911703;29;20039;-73
2022/06/01 08:51:56;;;;;;;0.50;0.50;;;;;;;;;;4909019;28;20042;-73
2022/06/01 08:54:22;;;;;;;1.30;0.38;;;;;;;;;;4915158;28;20055;-72
2022/06/01 08:56:54;;;;;;;1.02;0.43;;;;;;;;;;4915364;28;20570;-70
2022/06/01 08:59:38;;;;;;;1.90;0.60;;;;;;;;;;4912481;28;20050;-70
2022/06/01 09:02:31;;;;;;;0.73;0.47;;;;;;;;;;4910027;29;20027;-70
2022/06/01 09:05:07;;;;;;;0.68;0.38;;;;;;;;;;4916271;29;20039;-72
2022/06/01 09:07:47;;;;;;;1.08;0.45;;;;;;;;;;4916005;29;20076;-73
2022/06/01 09:10:39;;;;;;;1.33;0.40;;;;;;;;;;4915552;28;20040;-72
2022/06/01 09:13:12;;;;;;;0.77;0.40;;;;;;;;;;4915940;28;20079;-72
2022/06/01 09:15:55;;;;;;;;;;;;;;;;;;4928660;28;20291;-70
2022/06/01 09:18:25;;;;;;;1.05;0.63;;;;;;;;;;4915341;28;20004;-73
2022/06/01 09:23:35;;;;;;;1.00;0.50;;;;;;;;;;4914604;28;20039;-73
2022/06/01 09:26:03;;;;;;;1.65;0.60;;;;;;;;;;4914454;28;20035;-71
2022/06/01 09:28:29;;;;;;;1.00;0.65;;;;;;;;;;4914910;29;20031;-71
2022/06/01 09:31:00;;;;;;;3.97;1.13;;;;;;;;;;4914934;29;20064;-71
2022/06/01 09:33:29;;;;;;;1.33;0.70;;;;;;;;;;4911605;29;20048;-72
2022/06/01 09:36:03;;;;;;;0.52;0.40;;;;;;;;;;4912994;28;20051;-72
2022/06/01 09:38:51;;;;;;;1.75;0.52;;;;;;;;;;4916667;28;20039;-73
2022/06/01 09:41:19;;;;;;;0.90;0.45;;;;;;;;;;4912791;29;20436;-72
2022/06/01 09:43:55;;;;;;;1.00;0.50;;;;;;;;;;4915776;28;20125;-72
2022/06/01 09:46:35;;;;;;;1.30;0.40;;;;;;;;;;4915760;28;20042;-70
2022/06/01 09:49:36;;;;;;;3.45;0.60;;;;;;;;;;4914631;28;20044;-70
2022/06/01 09:52:12;;;;;;;2.10;0.60;;;;;;;;;;4915363;28;20051;-71
2022/06/01 09:54:51;;;;;;;0.80;0.40;;;;;;;;;;4915009;28;20527;-71
2022/06/01 09:57:19;;;;;;;1.98;0.50;;;;;;;;;;4914487;28;21664;-72
2022/06/01 10:08:15;;;;;;;1.70;0.40;;;;;;;;;;4940448;28;20043;-71
2022/06/01 10:11:02;;;;;;;3.42;0.82;;;;;;;;;;4915711;29;20044;-73
2022/06/01 10:13:30;;;;;;;2.80;0.38;;;;;;;;;;4913928;29;20047;-72
2022/06/01 10:15:59;;;;;;;3.00;0.50;;;;;;;;;;4914196;28;20061;-73
2022/06/01 10:18:30;;;;;;;2.13;0.40;;;;;;;;;;4914482;28;20524;-72
2022/06/01 10:21:18;;;;;;;0.63;0.40;;;;;;;;;;4914305;28;20042;-71
2022/06/01 10:23:54;;;;;;;1.20;0.40;;;;;;;;;;4914505;28;20048;-70
2022/06/01 10:26:27;;;;;;;1.42;0.57;;;;;;;;;;4912688;28;20058;-74
2022/06/01 10:29:13;;;;;;;1.08;0.70;;;;;;;;;;4912237;29;20407;-71
2022/06/01 10:31:44;;;;;;;1.48;0.70;;;;;;;;;;4913217;28;20054;-70
2022/06/01 10:34:34;;;;;;;2.25;0.30;;;;;;;;;;4912915;28;20066;-72
2022/06/01 10:37:03;;;;;;;1.90;0.52;;;;;;;;;;4913218;29;20125;-73
2022/06/01 10:39:35;;;;;;;1.42;0.45;;;;;;;;;;4912979;28;20127;-71
2022/06/01 10:42:00;;;;;;;2.25;0.47;;;;;;;;;;4911018;28;20047;-71
2022/06/01 10:44:58;;;;;;;0.98;0.38;;;;;;;;;;4912726;28;20098;-72
2022/06/01 10:47:48;;;;;;;0.95;0.50;;;;;;;;;;4913504;28;20534;-72
2022/06/01 10:50:24;;;;;;;1.10;0.50;;;;;;;;;;4912572;28;20114;-72
2022/06/01 10:52:56;;;;;;;1.33;0.60;;;;;;;;;;4913149;28;20034;-72
2022/06/01 10:55:28;;;;;;;0.90;0.50;;;;;;;;;;4911816;29;20590;-71
2022/06/01 10:57:56;;;;;;;0.50;0.50;;;;;;;;;;4911983;29;20040;-73
2022/06/01 11:00:29;;;;;;;1.80;0.70;;;;;;;;;;4909241;28;20075;-73
2022/06/01 11:03:14;;;;;;;;;;;;;;;;;;4913499;28;20040;-69
2022/06/01 11:06:00;;;;;;;3.95;0.50;;;;;;;;;;4913623;29;19962;-74
2022/06/01 11:08:32;;;;;;;1.15;0.45;;;;;;;;;;4913642;28;20126;-72
2022/06/01 11:11:01;;;;;;;3.03;0.47;;;;;;;;;;4910760;28;20032;-71
2022/06/01 11:13:50;;;;;;;1.33;0.70;;;;;;;;;;4911872;29;20031;-72
2022/06/01 11:16:39;;;;;;;1.80;0.50;;;;;;;;;;4909954;29;20399;-72
2022/06/01 11:19:26;;;;;;;0.85;0.50;;;;;;;;;;4909892;28;20051;-72
2022/06/01 11:22:05;;;;;;;2.22;0.73;;;;;;;;;;4911154;28;20877;-71
2022/06/01 11:25:08;;;;;;;2.03;0.70;;;;;;;;;;4911031;28;20134;-73
2022/06/01 11:28:34;;;;;;;2.42;0.70;;;;;;;;;;4914090;28;20044;-71
2022/06/01 11:31:18;;;;;;;2.53;0.63;;;;;;;;;;4883802;29;20052;-71
2022/06/01 11:33:50;;;;;;;1.80;1.10;;;;;;;;;;4882776;29;20045;-72
2022/06/01 11:36:19;;;;;;;1.27;0.52;;;;;;;;;;4911762;28;20055;-72
2022/06/01 11:38:51;;;;;;;1.45;0.45;;;;;;;;;;4937779;28;20053;-71
2022/06/01 11:41:24;;;;;;;0.90;0.40;;;;;;;;;;4911525;28;21741;-70
